Time;durP1;ratioP1;P1;durP2;ratioP2;P2;SDS_P1;SDS_P2;PMS_P1;PMS_P2;Temp;Humidity;BMP_temperature;BMP_pressure;BME280_temperature;BME280_humidity;BME280_pressure;Samples;Min_cycle;Max_cycle;Signal;HPM_P1;HPM_P2
2022/10/11 00:01:40;;;;;;;86.00;71.43;;;;;;;;;;5081515;28;20075;-76
2022/10/11 00:04:05;;;;;;;88.78;74.25;;;;;;;;;;5069311;28;20031;-78
2022/10/11 00:06:31;;;;;;;84.88;69.15;;;;;;;;;;5080273;28;20428;-77
2022/10/11 00:08:56;;;;;;;84.25;67.18;;;;;;;;;;5081296;28;20024;-77
2022/10/11 00:11:21;;;;;;;84.95;68.60;;;;;;;;;;5081585;28;20030;-77
2022/10/11 00:13:47;;;;;;;85.43;71.30;;;;;;;;;;5081470;28;20069;-75
2022/10/11 00:16:14;;;;;;;83.65;67.68;;;;;;;;;;5082341;28;20343;-75
2022/10/11 00:18:40;;;;;;;77.57;67.45;;;;;;;;;;5081306;28;20031;-78
2022/10/11 00:21:07;;;;;;;79.57;67.57;;;;;;;;;;5082146;28;20162;-77
2022/10/11 00:23:32;;;;;;;97.43;77.90;;;;;;;;;;5080951;28;20167;-76
2022/10/11 00:25:58;;;;;;;84.72;68.03;;;;;;;;;;5081411;28;20960;-78
2022/10/11 00:28:24;;;;;;;72.90;60.05;;;;;;;;;;5081522;28;20012;-76
2022/10/11 00:30:49;;;;;;;75.22;63.13;;;;;;;;;;5081555;28;20578;-76
2022/10/11 00:33:14;;;;;;;78.60;67.18;;;;;;;;;;5081047;28;20042;-77
2022/10/11 00:35:40;;;;;;;119.55;93.10;;;;;;;;;;5069405;28;20402;-77
2022/10/11 00:38:06;;;;;;;101.40;83.22;;;;;;;;;;5081268;28;20020;-75
2022/10/11 00:40:31;;;;;;;99.43;83.32;;;;;;;;;;5079998;28;20032;-76
2022/10/11 00:42:56;;;;;;;95.97;79.13;;;;;;;;;;5081066;28;20194;-75
2022/10/11 00:45:25;;;;;;;68.93;58.08;;;;;;;;;;5079420;28;20162;-75
2022/10/11 00:47:54;;;;;;;61.53;54.78;;;;;;;;;;5081510;28;20056;-77
2022/10/11 00:50:21;;;;;;;62.15;53.50;;;;;;;;;;5085796;28;20051;-76
2022/10/11 00:52:49;;;;;;;61.47;54.75;;;;;;;;;;5084905;28;20016;-78
2022/10/11 00:55:16;;;;;;;75.30;67.30;;;;;;;;;;5085828;28;20557;-75
2022/10/11 00:57:42;;;;;;;64.25;56.97;;;;;;;;;;5084794;28;20028;-75
2022/10/11 01:00:10;;;;;;;65.07;58.13;;;;;;;;;;5083394;28;20078;-76
2022/10/11 01:02:35;;;;;;;66.72;55.28;;;;;;;;;;5084105;28;20020;-75
2022/10/11 01:05:01;;;;;;;56.03;49.97;;;;;;;;;;5073885;28;20039;-76
2022/10/11 01:07:30;;;;;;;52.30;46.78;;;;;;;;;;5084898;28;20464;-78
2022/10/11 01:09:55;;;;;;;47.83;42.70;;;;;;;;;;5083825;28;20036;-76
2022/10/11 01:12:22;;;;;;;49.42;44.22;;;;;;;;;;5084942;28;20107;-75
2022/10/11 01:14:58;;;;;;;56.78;48.83;;;;;;;;;;5085674;28;20024;-75
2022/10/11 01:17:23;;;;;;;60.72;49.42;;;;;;;;;;5085131;28;20032;-77
2022/10/11 01:19:49;;;;;;;52.70;45.95;;;;;;;;;;5084962;28;20412;-76
2022/10/11 01:22:33;;;;;;;51.65;43.95;;;;;;;;;;5085250;28;20051;-76
2022/10/11 01:25:04;;;;;;;50.58;44.95;;;;;;;;;;5084521;28;20059;-76
2022/10/11 01:27:35;;;;;;;47.58;42.00;;;;;;;;;;5084667;28;20035;-75
2022/10/11 01:30:16;;;;;;;47.58;42.28;;;;;;;;;;5084834;28;20081;-76
2022/10/11 01:32:59;;;;;;;45.38;40.78;;;;;;;;;;5085524;28;20139;-77
2022/10/11 01:35:29;;;;;;;40.72;36.40;;;;;;;;;;5075673;28;20023;-78
2022/10/11 01:38:04;;;;;;;41.28;36.75;;;;;;;;;;5080236;28;20032;-75
2022/10/11 01:40:36;;;;;;;51.78;46.22;;;;;;;;;;5083445;28;20032;-75
2022/10/11 01:43:02;;;;;;;79.25;68.65;;;;;;;;;;5082923;28;20048;-77
2022/10/11 01:45:28;;;;;;;81.00;69.40;;;;;;;;;;5082984;28;20039;-77
2022/10/11 01:48:05;;;;;;;60.63;53.88;;;;;;;;;;5083456;28;20114;-76
2022/10/11 01:50:30;;;;;;;50.55;44.63;;;;;;;;;;5084005;28;20015;-75
2022/10/11 01:52:58;;;;;;;49.00;43.47;;;;;;;;;;5084024;28;20388;-75
2022/10/11 01:55:38;;;;;;;41.05;36.83;;;;;;;;;;5082826;28;20024;-76
2022/10/11 01:58:13;;;;;;;44.72;39.88;;;;;;;;;;5083735;28;20032;-75
2022/10/11 02:00:58;;;;;;;43.13;38.53;;;;;;;;;;5083507;28;20056;-75
2022/10/11 02:03:32;;;;;;;43.63;39.10;;;;;;;;;;5042662;28;20036;-77
2022/10/11 02:06:05;;;;;;;44.00;39.58;;;;;;;;;;5077873;28;20046;-78
2022/10/11 02:08:33;;;;;;;42.80;37.53;;;;;;;;;;5083829;28;20454;-76
2022/10/11 02:11:05;;;;;;;41.22;36.92;;;;;;;;;;5070874;28;20047;-76
2022/10/11 02:13:34;;;;;;;37.55;32.53;;;;;;;;;;5083237;28;20439;-77
2022/10/11 02:16:01;;;;;;;33.77;30.27;;;;;;;;;;5083676;28;20028;-75
2022/10/11 02:18:31;;;;;;;35.03;31.30;;;;;;;;;;5083006;28;20016;-75
2022/10/11 02:20:57;;;;;;;34.40;30.70;;;;;;;;;;5083365;28;20431;-76
2022/10/11 02:23:28;;;;;;;29.02;25.92;;;;;;;;;;5082233;28;20033;-77
2022/10/11 02:25:53;;;;;;;26.70;23.90;;;;;;;;;;5083475;28;20039;-76
2022/10/11 02:28:22;;;;;;;28.63;25.63;;;;;;;;;;5083405;28;21008;-76
2022/10/11 02:30:48;;;;;;;30.70;27.25;;;;;;;;;;5084363;28;20117;-77
2022/10/11 02:33:16;;;;;;;30.98;27.67;;;;;;;;;;5083477;28;20027;-77
2022/10/11 02:35:44;;;;;;;32.80;25.77;;;;;;;;;;5068743;28;20026;-75
2022/10/11 02:38:20;;;;;;;30.58;26.20;;;;;;;;;;5067686;28;20028;-77
2022/10/11 02:40:48;;;;;;;31.55;27.58;;;;;;;;;;5083470;28;20085;-77
2022/10/11 02:43:17;;;;;;;31.95;28.73;;;;;;;;;;5080327;28;20016;-74
2022/10/11 02:45:45;;;;;;;29.83;26.73;;;;;;;;;;5083324;28;20943;-76
2022/10/11 02:48:11;;;;;;;23.23;20.77;;;;;;;;;;5083429;28;20451;-78
2022/10/11 02:50:38;;;;;;;26.77;22.38;;;;;;;;;;5083016;28;20043;-79
2022/10/11 02:53:03;;;;;;;25.27;22.58;;;;;;;;;;5082669;28;20034;-78
2022/10/11 02:55:29;;;;;;;29.85;26.65;;;;;;;;;;5083458;28;20312;-77
2022/10/11 02:57:54;;;;;;;28.33;25.27;;;;;;;;;;5081984;28;20077;-78
2022/10/11 03:00:20;;;;;;;30.20;26.83;;;;;;;;;;5069366;28;20030;-77
2022/10/11 03:02:45;;;;;;;28.40;25.42;;;;;;;;;;5082521;28;20032;-78
2022/10/11 03:05:10;;;;;;;35.65;29.73;;;;;;;;;;5082930;28;20032;-78
2022/10/11 03:07:36;;;;;;;29.55;25.77;;;;;;;;;;5081527;28;20454;-79
2022/10/11 03:10:01;;;;;;;31.83;26.63;;;;;;;;;;5081656;28;20035;-78
2022/10/11 03:12:27;;;;;;;32.45;28.80;;;;;;;;;;5082297;28;20049;-79
2022/10/11 03:14:52;;;;;;;36.38;32.72;;;;;;;;;;5083711;28;20401;-76
2022/10/11 03:17:17;;;;;;;34.72;31.10;;;;;;;;;;5079619;28;20131;-77
2022/10/11 03:19:43;;;;;;;41.00;31.45;;;;;;;;;;5075831;28;20024;-76
2022/10/11 03:22:08;;;;;;;45.78;35.75;;;;;;;;;;5076398;28;20107;-76
2022/10/11 03:24:33;;;;;;;39.65;33.17;;;;;;;;;;5082263;28;20031;-77
2022/10/11 03:26:59;;;;;;;45.03;34.03;;;;;;;;;;5082099;28;20077;-76
2022/10/11 03:29:24;;;;;;;45.20;34.38;;;;;;;;;;5081858;28;20059;-77
2022/10/11 03:31:50;;;;;;;36.47;31.05;;;;;;;;;;5082820;28;20024;-77
2022/10/11 03:34:15;;;;;;;25.20;22.20;;;;;;;;;;5082771;28;20506;-77
2022/10/11 03:36:40;;;;;;;24.30;20.77;;;;;;;;;;5081472;28;21290;-77
2022/10/11 03:39:06;;;;;;;36.03;32.22;;;;;;;;;;5081301;28;20028;-76
2022/10/11 03:41:31;;;;;;;42.30;36.85;;;;;;;;;;5075477;28;20371;-76
2022/10/11 03:43:56;;;;;;;48.22;43.20;;;;;;;;;;5074820;28;20118;-75
2022/10/11 03:46:22;;;;;;;40.58;35.50;;;;;;;;;;5080465;28;20463;-75
2022/10/11 03:48:47;;;;;;;34.08;29.10;;;;;;;;;;5081200;28;20031;-76
2022/10/11 03:51:13;;;;;;;45.70;37.35;;;;;;;;;;5079496;28;20027;-76
2022/10/11 03:53:39;;;;;;;38.03;34.08;;;;;;;;;;5071553;28;20111;-76
2022/10/11 03:56:04;;;;;;;36.25;32.35;;;;;;;;;;5081428;28;20111;-76
2022/10/11 03:58:30;;;;;;;42.22;37.88;;;;;;;;;;5080555;28;20482;-77
2022/10/11 04:00:55;;;;;;;46.70;41.67;;;;;;;;;;5069887;28;20020;-77
2022/10/11 04:03:20;;;;;;;43.78;39.47;;;;;;;;;;5073126;28;20035;-75
2022/10/11 04:05:46;;;;;;;40.00;35.90;;;;;;;;;;5066136;28;20443;-75
2022/10/11 04:08:11;;;;;;;26.52;23.65;;;;;;;;;;5066751;28;20031;-77
2022/10/11 04:10:37;;;;;;;37.65;33.65;;;;;;;;;;5067093;28;20020;-75
2022/10/11 04:13:02;;;;;;;40.40;34.13;;;;;;;;;;5068390;28;20022;-78
2022/10/11 04:15:27;;;;;;;34.92;30.38;;;;;;;;;;5081964;28;20023;-78
2022/10/11 04:17:53;;;;;;;29.23;26.25;;;;;;;;;;5081867;28;20361;-76
2022/10/11 04:20:18;;;;;;;23.02;19.90;;;;;;;;;;5081733;28;20115;-77
2022/10/11 04:22:44;;;;;;;22.42;19.02;;;;;;;;;;5081728;28;20034;-76
2022/10/11 04:25:09;;;;;;;25.20;22.50;;;;;;;;;;5078344;28;20131;-77
2022/10/11 04:27:35;;;;;;;302.30;172.52;;;;;;;;;;5079395;28;20039;-76
2022/10/11 04:30:00;;;;;;;259.77;156.75;;;;;;;;;;5078078;28;20039;-75
2022/10/11 04:32:26;;;;;;;189.70;114.20;;;;;;;;;;5073088;28;20036;-77
2022/10/11 04:34:52;;;;;;;135.02;92.35;;;;;;;;;;5063480;28;20032;-76
2022/10/11 04:37:17;;;;;;;133.90;94.13;;;;;;;;;;5070201;28;20421;-77
2022/10/11 04:39:43;;;;;;;106.07;77.75;;;;;;;;;;5078357;28;21260;-77
2022/10/11 04:42:08;;;;;;;87.63;62.10;;;;;;;;;;5078243;28;20028;-77
2022/10/11 04:44:34;;;;;;;53.58;42.13;;;;;;;;;;5077596;28;20051;-77
2022/10/11 04:46:59;;;;;;;52.17;40.10;;;;;;;;;;5077972;28;20064;-76
2022/10/11 04:49:24;;;;;;;49.00;41.45;;;;;;;;;;5076758;28;20024;-77
2022/10/11 04:51:50;;;;;;;35.47;31.25;;;;;;;;;;5078612;28;20553;-76
2022/10/11 04:54:15;;;;;;;49.80;37.30;;;;;;;;;;5078844;28;20024;-76
2022/10/11 04:56:41;;;;;;;36.33;30.52;;;;;;;;;;5061436;28;20907;-76
2022/10/11 04:59:06;;;;;;;35.55;31.67;;;;;;;;;;5079577;28;20050;-78
2022/10/11 05:01:31;;;;;;;36.30;29.65;;;;;;;;;;5077927;28;20047;-79
2022/10/11 05:03:57;;;;;;;34.95;29.70;;;;;;;;;;5078783;28;20032;-78
2022/10/11 05:06:22;;;;;;;36.05;30.05;;;;;;;;;;5081620;28;20088;-78
2022/10/11 05:08:47;;;;;;;51.25;42.10;;;;;;;;;;5081149;28;20032;-75
2022/10/11 05:11:14;;;;;;;43.40;37.33;;;;;;;;;;5080965;28;20406;-76
2022/10/11 05:13:39;;;;;;;36.92;30.23;;;;;;;;;;5081245;28;20028;-77
2022/10/11 05:16:05;;;;;;;40.95;31.77;;;;;;;;;;5081157;28;20391;-75
2022/10/11 05:18:30;;;;;;;56.65;44.65;;;;;;;;;;5080362;28;20128;-76
2022/10/11 05:20:59;;;;;;;70.57;58.08;;;;;;;;;;5078405;28;20027;-76
2022/10/11 05:23:24;;;;;;;88.88;69.85;;;;;;;;;;5066776;28;20059;-75
2022/10/11 05:25:50;;;;;;;80.68;71.40;;;;;;;;;;5067141;28;20044;-75
2022/10/11 05:28:15;;;;;;;75.15;65.80;;;;;;;;;;5068261;28;20096;-77
2022/10/11 05:30:40;;;;;;;57.47;51.50;;;;;;;;;;5067705;28;20024;-77
2022/10/11 05:33:06;;;;;;;53.35;46.33;;;;;;;;;;5067290;28;20084;-77
2022/10/11 05:35:31;;;;;;;46.40;41.45;;;;;;;;;;5075876;28;20110;-77
2022/10/11 05:37:56;;;;;;;57.55;50.22;;;;;;;;;;5084923;28;20040;-78
2022/10/11 05:40:22;;;;;;;63.25;53.80;;;;;;;;;;5086196;28;20122;-78
2022/10/11 05:42:47;;;;;;;78.95;65.40;;;;;;;;;;5084179;28;20023;-77
2022/10/11 05:45:12;;;;;;;86.80;71.45;;;;;;;;;;5084077;28;20121;-78
2022/10/11 05:47:38;;;;;;;118.35;88.88;;;;;;;;;;5084199;28;20052;-78
2022/10/11 05:50:03;;;;;;;119.70;88.10;;;;;;;;;;5073064;28;20038;-80
2022/10/11 05:52:29;;;;;;;106.13;82.47;;;;;;;;;;5068782;28;20067;-78
2022/10/11 05:54:57;;;;;;;142.02;104.03;;;;;;;;;;5070680;28;20016;-79
2022/10/11 05:57:23;;;;;;;113.30;87.03;;;;;;;;;;5068745;28;20081;-78
2022/10/11 05:59:48;;;;;;;90.35;70.78;;;;;;;;;;5069919;28;20068;-78
2022/10/11 06:02:14;;;;;;;125.82;108.50;;;;;;;;;;5069793;28;20107;-79
2022/10/11 06:04:39;;;;;;;76.40;63.90;;;;;;;;;;5081717;28;20036;-80
2022/10/11 06:07:05;;;;;;;81.60;65.28;;;;;;;;;;5073518;28;20036;-79
2022/10/11 06:09:30;;;;;;;49.70;43.42;;;;;;;;;;5077409;28;20035;-76
2022/10/11 06:11:56;;;;;;;53.53;45.28;;;;;;;;;;5076580;28;20028;-77
2022/10/11 06:14:22;;;;;;;85.95;72.35;;;;;;;;;;5084158;28;20645;-79
2022/10/11 06:16:47;;;;;;;89.03;70.13;;;;;;;;;;5079957;28;20027;-79
2022/10/11 06:19:13;;;;;;;72.05;59.92;;;;;;;;;;5081367;28;20118;-78
2022/10/11 06:21:38;;;;;;;71.70;61.17;;;;;;;;;;5065074;28;21169;-76
2022/10/11 06:24:04;;;;;;;37.40;33.53;;;;;;;;;;5078387;28;20353;-76
2022/10/11 06:26:29;;;;;;;29.67;26.42;;;;;;;;;;5081454;28;20443;-75
2022/10/11 06:28:55;;;;;;;34.67;28.95;;;;;;;;;;5083148;28;20038;-78
2022/10/11 06:31:20;;;;;;;42.92;36.75;;;;;;;;;;5082133;28;20074;-76
2022/10/11 06:33:46;;;;;;;42.67;36.60;;;;;;;;;;5083162;28;20401;-77
2022/10/11 06:36:12;;;;;;;36.75;31.38;;;;;;;;;;5079532;28;20114;-78
2022/10/11 06:38:38;;;;;;;45.55;39.42;;;;;;;;;;5069111;28;20031;-76
2022/10/11 06:41:10;;;;;;;39.70;35.35;;;;;;;;;;5067968;28;20329;-75
2022/10/11 06:43:36;;;;;;;44.67;35.33;;;;;;;;;;5080014;28;20374;-76
2022/10/11 06:46:01;;;;;;;43.17;33.60;;;;;;;;;;5082167;28;20127;-77
2022/10/11 06:48:26;;;;;;;46.88;36.10;;;;;;;;;;5069830;28;20024;-76
2022/10/11 06:50:52;;;;;;;100.00;71.30;;;;;;;;;;5071683;28;20032;-76
2022/10/11 06:53:17;;;;;;;60.00;44.83;;;;;;;;;;5081046;28;20024;-77
2022/10/11 06:55:43;;;;;;;39.17;27.60;;;;;;;;;;5082155;28;20446;-76
2022/10/11 06:58:08;;;;;;;46.53;34.30;;;;;;;;;;5082802;28;20036;-77
2022/10/11 07:00:33;;;;;;;19.98;16.33;;;;;;;;;;5080957;28;20431;-76
2022/10/11 07:02:59;;;;;;;32.35;21.27;;;;;;;;;;5082563;28;20093;-76
2022/10/11 07:05:24;;;;;;;28.67;21.98;;;;;;;;;;5082388;28;20055;-76
2022/10/11 07:07:50;;;;;;;25.73;20.45;;;;;;;;;;5082032;28;20031;-75
2022/10/11 07:10:15;;;;;;;19.73;16.02;;;;;;;;;;5081039;28;20036;-76
2022/10/11 07:12:43;;;;;;;18.23;13.50;;;;;;;;;;5070157;28;20431;-77
2022/10/11 07:15:09;;;;;;;37.88;26.30;;;;;;;;;;5073218;28;20068;-77
2022/10/11 07:17:34;;;;;;;30.75;20.35;;;;;;;;;;5069409;28;20028;-76
2022/10/11 07:20:00;;;;;;;17.38;13.63;;;;;;;;;;5081129;28;20031;-76
2022/10/11 07:22:25;;;;;;;19.50;15.43;;;;;;;;;;5080869;28;20346;-75
2022/10/11 07:24:50;;;;;;;16.85;12.85;;;;;;;;;;5081733;28;20369;-76
2022/10/11 07:27:16;;;;;;;20.45;13.68;;;;;;;;;;5080409;28;20051;-77
2022/10/11 07:29:42;;;;;;;16.42;11.95;;;;;;;;;;5075020;28;20087;-76
2022/10/11 07:32:07;;;;;;;19.70;12.90;;;;;;;;;;5070963;28;20028;-76
2022/10/11 07:34:33;;;;;;;17.25;14.18;;;;;;;;;;5074086;28;20470;-78
2022/10/11 07:36:58;;;;;;;20.45;13.43;;;;;;;;;;5065961;28;20352;-77
2022/10/11 07:39:24;;;;;;;18.95;12.40;;;;;;;;;;5066053;28;20024;-78
2022/10/11 07:41:49;;;;;;;17.45;11.05;;;;;;;;;;5065193;28;20432;-76
2022/10/11 07:44:14;;;;;;;13.80;11.68;;;;;;;;;;5069396;28;20028;-76
2022/10/11 07:46:40;;;;;;;18.83;13.40;;;;;;;;;;5080036;28;20095;-78
2022/10/11 07:49:05;;;;;;;23.80;17.00;;;;;;;;;;5081175;28;20423;-74
2022/10/11 07:51:31;;;;;;;18.90;12.25;;;;;;;;;;5080481;28;20111;-76
2022/10/11 07:53:57;;;;;;;14.88;9.52;;;;;;;;;;5081372;28;20093;-75
2022/10/11 07:56:24;;;;;;;13.18;10.68;;;;;;;;;;5079918;28;20036;-76
2022/10/11 07:58:50;;;;;;;14.45;11.63;;;;;;;;;;5081092;28;20110;-75
2022/10/11 08:01:16;;;;;;;17.77;12.63;;;;;;;;;;5081068;28;20050;-76
2022/10/11 08:03:42;;;;;;;21.70;14.50;;;;;;;;;;5081206;28;20024;-76
2022/10/11 08:06:08;;;;;;;21.27;14.02;;;;;;;;;;5081541;28;20020;-76
2022/10/11 08:08:34;;;;;;;17.52;13.93;;;;;;;;;;5079284;28;20117;-76
2022/10/11 08:10:59;;;;;;;21.33;14.10;;;;;;;;;;5080348;28;20114;-76
2022/10/11 08:13:25;;;;;;;17.83;14.15;;;;;;;;;;5080157;28;20024;-76
2022/10/11 08:15:50;;;;;;;21.98;12.88;;;;;;;;;;5080379;28;20020;-75
2022/10/11 08:18:16;;;;;;;14.63;10.32;;;;;;;;;;5081174;28;20028;-75
2022/10/11 08:20:41;;;;;;;17.17;10.60;;;;;;;;;;5080292;28;20136;-74
2022/10/11 08:23:06;;;;;;;18.95;13.63;;;;;;;;;;5081207;28;20024;-75
2022/10/11 08:25:36;;;;;;;28.63;20.80;;;;;;;;;;5079887;28;20104;-77
2022/10/11 08:28:02;;;;;;;25.25;19.77;;;;;;;;;;5079647;28;20031;-75
2022/10/11 08:30:28;;;;;;;17.45;12.18;;;;;;;;;;5080093;28;20035;-74
2022/10/11 08:32:53;;;;;;;19.95;13.63;;;;;;;;;;5079638;28;20107;-75
2022/10/11 08:35:18;;;;;;;31.75;25.23;;;;;;;;;;5079326;28;20443;-74
2022/10/11 08:37:44;;;;;;;23.02;17.50;;;;;;;;;;5078966;28;20031;-75
2022/10/11 08:40:13;;;;;;;20.15;16.40;;;;;;;;;;5079427;28;20058;-74
2022/10/11 08:43:00;;;;;;;18.30;15.05;;;;;;;;;;5079763;28;20020;-74
2022/10/11 08:45:28;;;;;;;36.70;27.33;;;;;;;;;;5079775;28;20032;-77
2022/10/11 08:48:03;;;;;;;27.52;23.42;;;;;;;;;;5069752;28;20036;-75
2022/10/11 08:50:28;;;;;;;28.95;20.27;;;;;;;;;;5079365;28;20027;-76
2022/10/11 08:53:05;;;;;;;44.90;40.28;;;;;;;;;;5080288;28;20031;-76
2022/10/11 08:55:36;;;;;;;29.52;23.95;;;;;;;;;;5079412;28;20133;-74
2022/10/11 08:58:01;;;;;;;71.90;54.92;;;;;;;;;;5079224;28;20458;-77
2022/10/11 09:00:29;;;;;;;48.08;40.50;;;;;;;;;;5079969;28;20027;-76
2022/10/11 09:03:10;;;;;;;33.20;28.13;;;;;;;;;;5079506;28;20034;-75
2022/10/11 09:05:41;;;;;;;24.65;19.98;;;;;;;;;;5067920;28;20020;-75
2022/10/11 09:08:16;;;;;;;26.52;17.88;;;;;;;;;;5083356;28;20028;-75
2022/10/11 09:10:56;;;;;;;24.55;17.23;;;;;;;;;;5078578;28;20079;-75
2022/10/11 09:13:30;;;;;;;31.52;22.50;;;;;;;;;;5069968;28;20398;-76
2022/10/11 09:16:04;;;;;;;24.92;20.52;;;;;;;;;;5070041;28;20093;-75
2022/10/11 09:18:39;;;;;;;44.60;31.02;;;;;;;;;;5070229;28;20103;-77
2022/10/11 09:21:17;;;;;;;50.38;38.67;;;;;;;;;;5070715;28;20081;-76
2022/10/11 09:24:06;;;;;;;45.85;32.28;;;;;;;;;;5071513;28;20036;-76
2022/10/11 09:26:38;;;;;;;92.18;69.18;;;;;;;;;;5062070;28;20058;-77
2022/10/11 09:29:13;;;;;;;63.25;44.25;;;;;;;;;;5073021;28;20165;-76
2022/10/11 09:31:39;;;;;;;88.05;59.85;;;;;;;;;;5083686;28;20070;-75
2022/10/11 09:34:09;;;;;;;84.68;58.08;;;;;;;;;;5082367;28;20034;-73
2022/10/11 09:37:13;;;;;;;84.10;59.75;;;;;;;;;;5082870;28;20032;-74
2022/10/11 09:39:44;;;;;;;64.70;45.53;;;;;;;;;;5045890;28;20071;-76
2022/10/11 09:42:11;;;;;;;42.03;29.98;;;;;;;;;;5049439;28;20039;-75
2022/10/11 09:44:38;;;;;;;36.65;26.08;;;;;;;;;;5056809;28;20349;-73
2022/10/11 09:47:04;;;;;;;29.30;20.60;;;;;;;;;;5042559;28;20783;-75
2022/10/11 09:49:39;;;;;;;42.08;26.73;;;;;;;;;;5038132;28;20036;-75
2022/10/11 09:52:06;;;;;;;49.20;33.42;;;;;;;;;;5036799;28;20037;-76
2022/10/11 09:54:38;;;;;;;23.85;18.10;;;;;;;;;;5037779;28;20045;-76
2022/10/11 09:57:03;;;;;;;12.90;10.55;;;;;;;;;;5034452;28;20099;-75
2022/10/11 09:59:30;;;;;;;16.10;10.80;;;;;;;;;;5037364;28;20047;-76
2022/10/11 10:02:25;;;;;;;16.90;9.18;;;;;;;;;;5036651;28;20119;-76
2022/10/11 10:04:54;;;;;;;11.55;9.10;;;;;;;;;;4970607;28;20049;-75
2022/10/11 10:07:20;;;;;;;14.48;10.00;;;;;;;;;;4971790;28;20030;-76
2022/10/11 10:09:46;;;;;;;19.77;12.80;;;;;;;;;;4978404;28;20030;-76
2022/10/11 10:12:13;;;;;;;18.15;11.05;;;;;;;;;;5011318;28;20384;-76
2022/10/11 10:14:39;;;;;;;16.05;10.70;;;;;;;;;;5006446;28;20372;-76
2022/10/11 10:17:07;;;;;;;15.82;9.57;;;;;;;;;;5005948;28;21004;-75
2022/10/11 10:19:39;;;;;;;13.63;8.98;;;;;;;;;;5007849;28;20037;-76
2022/10/11 10:22:05;;;;;;;14.48;9.43;;;;;;;;;;5006936;28;20068;-76
2022/10/11 10:24:33;;;;;;;16.55;9.60;;;;;;;;;;5007469;28;20041;-75
2022/10/11 10:27:04;;;;;;;13.30;9.13;;;;;;;;;;5007057;28;20077;-75
2022/10/11 10:29:30;;;;;;;21.88;15.20;;;;;;;;;;5006686;28;20037;-76
2022/10/11 10:31:56;;;;;;;27.15;19.08;;;;;;;;;;5009355;28;20112;-75
2022/10/11 10:34:32;;;;;;;16.75;12.25;;;;;;;;;;5007787;28;20033;-75
2022/10/11 10:37:18;;;;;;;17.95;8.80;;;;;;;;;;5006286;28;20429;-76
2022/10/11 10:39:46;;;;;;;12.35;9.07;;;;;;;;;;5015150;28;20057;-74
2022/10/11 10:42:14;;;;;;;13.27;8.80;;;;;;;;;;5074443;28;20040;-75
2022/10/11 10:44:39;;;;;;;12.43;9.20;;;;;;;;;;5081747;28;20020;-75
2022/10/11 10:47:09;;;;;;;16.27;9.63;;;;;;;;;;5081296;28;20462;-74
2022/10/11 10:49:39;;;;;;;12.07;9.85;;;;;;;;;;5082647;28;20451;-76
2022/10/11 10:52:19;;;;;;;19.20;11.30;;;;;;;;;;5080898;28;20062;-75
2022/10/11 10:54:57;;;;;;;14.50;11.13;;;;;;;;;;5080776;28;20032;-74
2022/10/11 10:57:24;;;;;;;15.63;10.95;;;;;;;;;;5080717;28;20035;-75
2022/10/11 11:00:08;;;;;;;15.23;10.20;;;;;;;;;;5081659;28;20039;-75
2022/10/11 11:03:03;;;;;;;13.00;8.82;;;;;;;;;;5081225;28;20039;-74
2022/10/11 11:05:47;;;;;;;15.43;10.85;;;;;;;;;;5067102;28;20107;-75
2022/10/11 11:08:25;;;;;;;18.52;11.77;;;;;;;;;;5078632;28;20016;-76
2022/10/11 11:11:14;;;;;;;15.30;11.27;;;;;;;;;;5080591;28;20120;-75
2022/10/11 11:13:42;;;;;;;17.92;11.07;;;;;;;;;;5071437;28;20040;-75
2022/10/11 11:16:08;;;;;;;17.77;9.63;;;;;;;;;;5079831;28;20451;-74
2022/10/11 11:18:45;;;;;;;12.63;9.40;;;;;;;;;;5079506;28;20039;-78
2022/10/11 11:21:29;;;;;;;12.68;9.43;;;;;;;;;;5079128;28;20431;-77
2022/10/11 11:24:07;;;;;;;17.25;12.98;;;;;;;;;;5080280;28;20103;-76
2022/10/11 11:26:35;;;;;;;15.20;10.32;;;;;;;;;;5078119;28;20355;-77
2022/10/11 11:29:10;;;;;;;17.50;10.77;;;;;;;;;;5079059;28;20060;-75
2022/10/11 11:31:38;;;;;;;14.13;11.82;;;;;;;;;;5080180;28;20125;-76
2022/10/11 11:34:09;;;;;;;14.85;10.60;;;;;;;;;;5079914;28;20070;-75
2022/10/11 11:36:39;;;;;;;13.98;10.32;;;;;;;;;;5079922;28;20028;-75
2022/10/11 11:39:05;;;;;;;17.58;12.57;;;;;;;;;;5073225;28;20071;-76
2022/10/11 11:41:41;;;;;;;21.15;13.23;;;;;;;;;;5066677;28;20043;-75
2022/10/11 11:44:20;;;;;;;17.02;13.82;;;;;;;;;;5072253;28;20051;-74
2022/10/11 11:46:56;;;;;;;21.38;15.95;;;;;;;;;;5067095;28;20060;-75
2022/10/11 11:49:42;;;;;;;27.45;19.13;;;;;;;;;;5066653;28;20032;-76
2022/10/11 11:52:12;;;;;;;22.48;17.58;;;;;;;;;;5065235;28;20391;-74
2022/10/11 11:54:46;;;;;;;26.05;17.77;;;;;;;;;;5076605;28;20077;-75
2022/10/11 11:57:23;;;;;;;23.30;16.92;;;;;;;;;;5079879;28;20030;-77
2022/10/11 12:00:15;;;;;;;20.88;15.40;;;;;;;;;;5079277;28;20346;-76
2022/10/11 12:02:46;;;;;;;22.50;12.98;;;;;;;;;;5075753;28;20048;-78
2022/10/11 12:05:14;;;;;;;11.32;9.30;;;;;;;;;;5080029;28;20028;-73
2022/10/11 12:07:54;;;;;;;12.23;8.88;;;;;;;;;;5080593;28;20050;-78
2022/10/11 12:10:25;;;;;;;13.35;8.95;;;;;;;;;;5078673;28;20020;-76
2022/10/11 12:13:01;;;;;;;15.32;9.98;;;;;;;;;;5073658;28;20443;-76
2022/10/11 12:15:27;;;;;;;10.48;7.45;;;;;;;;;;5073039;28;20051;-75
2022/10/11 12:17:55;;;;;;;10.88;8.40;;;;;;;;;;5080250;28;20082;-77
2022/10/11 12:20:23;;;;;;;12.40;10.30;;;;;;;;;;5070700;28;20020;-77
2022/10/11 12:22:48;;;;;;;10.10;9.13;;;;;;;;;;5067257;28;20077;-76
2022/10/11 12:25:13;;;;;;;15.63;13.80;;;;;;;;;;5067252;28;20673;-77
2022/10/11 12:27:44;;;;;;;27.33;19.70;;;;;;;;;;5066905;28;20363;-76
2022/10/11 12:30:28;;;;;;;31.88;20.95;;;;;;;;;;5065528;28;20039;-75
2022/10/11 12:33:01;;;;;;;38.47;23.55;;;;;;;;;;5066929;28;20020;-76
2022/10/11 12:35:30;;;;;;;36.25;24.10;;;;;;;;;;5073390;28;20331;-76
2022/10/11 12:38:04;;;;;;;32.20;23.13;;;;;;;;;;5079429;28;20042;-76
2022/10/11 12:40:41;;;;;;;33.22;21.85;;;;;;;;;;5080031;28;20035;-74
2022/10/11 12:43:13;;;;;;;31.13;21.83;;;;;;;;;;5075681;28;20027;-74
2022/10/11 12:45:40;;;;;;;28.10;21.70;;;;;;;;;;5067400;28;22671;-74
2022/10/11 12:48:10;;;;;;;25.77;19.13;;;;;;;;;;5067081;28;20028;-74
2022/10/11 12:50:35;;;;;;;28.42;19.95;;;;;;;;;;5067113;28;20115;-74
2022/10/11 12:53:04;;;;;;;27.77;17.45;;;;;;;;;;5068091;28;20507;-74
2022/10/11 12:55:38;;;;;;;26.65;19.02;;;;;;;;;;5066344;28;20363;-75
2022/10/11 12:58:13;;;;;;;25.50;19.38;;;;;;;;;;5078167;28;20047;-75
2022/10/11 13:00:38;;;;;;;25.80;18.30;;;;;;;;;;5073657;28;20439;-75
2022/10/11 13:03:04;;;;;;;28.55;20.67;;;;;;;;;;5067746;28;20034;-76
2022/10/11 13:05:30;;;;;;;25.02;20.48;;;;;;;;;;5065283;28;21165;-74
2022/10/11 13:07:56;;;;;;;19.02;13.70;;;;;;;;;;5072668;28;20564;-74
2022/10/11 13:10:27;;;;;;;18.35;13.93;;;;;;;;;;5078253;28;20023;-73
2022/10/11 13:12:53;;;;;;;18.42;15.00;;;;;;;;;;5079063;28;20058;-75
2022/10/11 13:15:21;;;;;;;17.73;13.18;;;;;;;;;;5077982;28;20063;-74
2022/10/11 13:17:47;;;;;;;17.60;12.68;;;;;;;;;;5078715;28;20028;-75
2022/10/11 13:20:18;;;;;;;18.75;11.75;;;;;;;;;;5076044;28;20039;-74
2022/10/11 13:22:48;;;;;;;16.85;12.07;;;;;;;;;;5071843;28;20031;-75
2022/10/11 13:25:18;;;;;;;13.77;9.90;;;;;;;;;;5074751;28;20024;-75
2022/10/11 13:27:44;;;;;;;13.43;10.35;;;;;;;;;;5064528;28;20028;-75
2022/10/11 13:30:15;;;;;;;16.05;11.05;;;;;;;;;;5064943;28;20031;-76
2022/10/11 13:32:41;;;;;;;29.33;21.95;;;;;;;;;;5065458;28;20077;-75
2022/10/11 13:35:15;;;;;;;32.45;22.25;;;;;;;;;;5065135;28;20055;-76
2022/10/11 13:37:43;;;;;;;22.77;19.23;;;;;;;;;;5064824;28;20366;-75
2022/10/11 13:40:11;;;;;;;23.10;17.13;;;;;;;;;;5068437;28;20047;-76
2022/10/11 13:42:37;;;;;;;26.73;15.63;;;;;;;;;;5074055;28;20032;-75
2022/10/11 13:45:02;;;;;;;68.95;50.50;;;;;;;;;;5074056;28;20066;-75
2022/10/11 13:47:29;;;;;;;32.08;24.50;;;;;;;;;;5079619;28;20142;-77
2022/10/11 13:50:06;;;;;;;27.30;21.83;;;;;;;;;;5078394;28;20028;-75
2022/10/11 13:52:32;;;;;;;21.33;16.27;;;;;;;;;;5077144;28;20032;-75
2022/10/11 13:55:13;;;;;;;19.92;15.20;;;;;;;;;;5076854;28;20383;-75
2022/10/11 13:57:43;;;;;;;24.75;16.83;;;;;;;;;;5082519;28;20411;-76
2022/10/11 14:00:19;;;;;;;19.52;14.40;;;;;;;;;;5081738;28;20493;-76
2022/10/11 14:02:54;;;;;;;21.88;15.90;;;;;;;;;;5080895;28;20350;-75
2022/10/11 14:05:28;;;;;;;20.67;15.65;;;;;;;;;;5082470;28;20031;-74
2022/10/11 14:07:54;;;;;;;36.10;24.92;;;;;;;;;;5081829;28;20035;-74
2022/10/11 14:10:21;;;;;;;29.38;20.35;;;;;;;;;;5082797;28;20034;-76
2022/10/11 14:12:56;;;;;;;69.63;45.03;;;;;;;;;;5068730;28;20031;-76
2022/10/11 14:15:27;;;;;;;47.72;34.30;;;;;;;;;;5068935;28;20012;-75
2022/10/11 14:17:52;;;;;;;41.05;28.80;;;;;;;;;;5069960;28;20024;-75
2022/10/11 14:20:25;;;;;;;25.42;18.38;;;;;;;;;;5070414;28;20042;-76
2022/10/11 14:22:51;;;;;;;25.77;22.33;;;;;;;;;;5069880;28;20121;-76
2022/10/11 14:25:17;;;;;;;31.25;24.48;;;;;;;;;;5069131;28;20473;-76